Time;durP1;ratioP1;P1;durP2;ratioP2;P2;SDS_P1;SDS_P2;PMS_P1;PMS_P2;Temp;Humidity;BMP_temperature;BMP_pressure;BME280_temperature;BME280_humidity;BME280_pressure;Samples;Min_cycle;Max_cycle;Signal;HPM_P1;HPM_P2
2022/08/22 00:01:09;;;;;;;;;;;24.10;59.60;;;;;;6326611;27;19965;-41
2022/08/22 00:04:21;;;;;;;;;;;24.20;59.70;;;;;;6295622;27;19946;-39
2022/08/22 00:07:26;;;;;;;;;;;24.20;59.70;;;;;;6330423;27;19979;-39
2022/08/22 00:10:32;;;;;;;;;;;24.30;59.80;;;;;;6332508;27;19962;-41
2022/08/22 00:13:36;;;;;;;;;;;24.00;59.60;;;;;;6334647;27;19919;-39
2022/08/22 00:16:40;;;;;;;;;;;24.20;59.80;;;;;;6331394;27;20908;-40
2022/08/22 00:19:46;;;;;;;;;;;24.00;59.70;;;;;;6330684;27;19944;-43
2022/08/22 00:22:51;;;;;;;;;;;24.00;59.70;;;;;;6330918;27;19999;-41
2022/08/22 00:25:57;;;;;;;;;;;24.00;59.90;;;;;;6334184;27;20854;-41
2022/08/22 00:29:01;;;;;;;;;;;24.20;59.90;;;;;;6312751;27;19935;-39
2022/08/22 00:32:06;;;;;;;;;;;24.00;59.80;;;;;;6333987;27;19926;-40
2022/08/22 00:35:14;;;;;;;;;;;24.10;59.80;;;;;;6331011;27;19923;-40
2022/08/22 00:38:18;;;;;;;;;;;24.20;60.00;;;;;;6311550;27;19927;-39
2022/08/22 00:41:30;;;;;;;;;;;24.10;59.90;;;;;;6329275;27;19926;-39
2022/08/22 00:44:43;;;;;;;;;;;24.00;59.80;;;;;;6312714;27;19936;-43
2022/08/22 00:47:54;;;;;;;;;;;24.00;59.80;;;;;;6330323;27;20838;-42
2022/08/22 00:51:04;;;;;;;;;;;24.00;59.80;;;;;;6331117;27;20018;-41
2022/08/22 00:54:10;;;;;;;;;;;24.00;59.90;;;;;;6333217;27;20042;-39
2022/08/22 00:57:29;;;;;;;;;;;24.00;60.00;;;;;;6332685;27;19929;-41
2022/08/22 01:00:34;;;;;;;;;;;24.20;60.00;;;;;;6335478;27;20449;-43
2022/08/22 01:03:49;;;;;;;;;;;24.20;60.00;;;;;;6332203;27;19923;-42
2022/08/22 01:07:01;;;;;;;;;;;24.30;60.10;;;;;;6328619;27;19923;-39
2022/08/22 01:10:13;;;;;;;;;;;24.20;60.00;;;;;;6332239;27;19965;-39
2022/08/22 01:13:23;;;;;;;;;;;24.10;60.00;;;;;;6327719;27;19974;-40
2022/08/22 01:16:29;;;;;;;;;;;23.90;59.90;;;;;;6310137;27;19919;-39
2022/08/22 01:19:45;;;;;;;;;;;24.30;60.10;;;;;;6326974;27;20027;-39
2022/08/22 01:23:04;;;;;;;;;;;23.90;59.90;;;;;;6329994;27;19933;-41
2022/08/22 01:26:22;;;;;;;;;;;24.20;60.10;;;;;;6331653;27;20033;-39
2022/08/22 01:29:40;;;;;;;;;;;24.10;60.00;;;;;;6329531;27;19923;-40
2022/08/22 01:32:56;;;;;;;;;;;23.80;59.90;;;;;;6330147;27;19923;-39
2022/08/22 01:36:08;;;;;;;;;;;24.30;60.20;;;;;;6313352;27;20031;-39
2022/08/22 01:39:27;;;;;;;;;;;24.40;60.20;;;;;;6331453;27;19947;-40
2022/08/22 01:42:36;;;;;;;;;;;24.00;60.00;;;;;;6329967;27;19923;-40
2022/08/22 01:45:48;;;;;;;;;;;24.50;60.30;;;;;;6331147;27;19930;-39
2022/08/22 01:48:52;;;;;;;;;;;23.80;60.00;;;;;;6332861;27;19922;-40
2022/08/22 01:51:57;;;;;;;;;;;24.20;60.20;;;;;;6331483;27;19926;-39
2022/08/22 01:55:01;;;;;;;;;;;23.90;60.00;;;;;;6332102;27;20776;-39
2022/08/22 01:58:12;;;;;;;;;;;23.80;60.00;;;;;;6332881;27;20606;-41
2022/08/22 02:01:19;;;;;;;;;;;24.00;60.10;;;;;;6313833;27;19923;-41
2022/08/22 02:04:28;;;;;;;;;;;24.00;60.10;;;;;;6310534;27;19961;-40
2022/08/22 02:07:30;;;;;;;;;;;23.90;60.10;;;;;;6330441;27;20038;-39
2022/08/22 02:10:47;;;;;;;;;;;23.90;60.10;;;;;;6325533;27;21048;-41
2022/08/22 02:13:51;;;;;;;;;;;24.10;60.20;;;;;;6304772;27;20004;-40
2022/08/22 02:16:56;;;;;;;;;;;24.30;60.30;;;;;;6328927;27;19919;-39
2022/08/22 02:20:00;;;;;;;;;;;23.90;60.20;;;;;;6309348;27;20026;-39
2022/08/22 02:23:06;;;;;;;;;;;24.10;60.30;;;;;;6326087;27;20059;-39
2022/08/22 02:26:11;;;;;;;;;;;23.90;60.10;;;;;;6300513;27;20071;-41
2022/08/22 02:29:15;;;;;;;;;;;24.20;60.30;;;;;;6319252;27;19955;-39
2022/08/22 02:32:19;;;;;;;;;;;23.80;60.20;;;;;;6301861;27;19927;-39
2022/08/22 02:35:25;;;;;;;;;;;24.20;60.40;;;;;;6321244;27;21678;-41
2022/08/22 02:38:28;;;;;;;;;;;23.90;60.30;;;;;;6300495;27;20421;-42
2022/08/22 02:41:43;;;;;;;;;;;23.90;60.20;;;;;;6315379;27;20090;-39
2022/08/22 02:44:49;;;;;;;;;;;24.40;60.50;;;;;;6303606;27;20413;-41
2022/08/22 02:47:55;;;;;;;;;;;24.10;60.40;;;;;;6314343;27;20487;-40
2022/08/22 02:51:00;;;;;;;;;;;24.00;60.30;;;;;;6297431;27;19923;-42
2022/08/22 02:54:06;;;;;;;;;;;24.00;60.30;;;;;;6316687;27;20049;-42
2022/08/22 02:57:11;;;;;;;;;;;24.10;60.40;;;;;;6297218;27;20829;-41
2022/08/22 03:00:17;;;;;;;;;;;24.00;60.30;;;;;;6301364;27;20225;-39
2022/08/22 03:03:37;;;;;;;;;;;23.80;60.30;;;;;;6319266;27;19999;-39
2022/08/22 03:06:44;;;;;;;;;;;24.00;60.40;;;;;;6303363;27;20050;-40
2022/08/22 03:09:47;;;;;;;;;;;23.80;60.20;;;;;;6318511;27;20495;-41
2022/08/22 03:12:59;;;;;;;;;;;24.10;60.50;;;;;;6300952;27;20218;-40
2022/08/22 03:16:05;;;;;;;;;;;24.20;60.50;;;;;;6315972;27;19923;-38
2022/08/22 03:19:08;;;;;;;;;;;23.80;60.20;;;;;;6301417;27;20245;-40
2022/08/22 03:22:24;;;;;;;;;;;23.90;60.30;;;;;;6315874;27;19966;-39
2022/08/22 03:25:29;;;;;;;;;;;24.10;60.50;;;;;;6312313;27;19923;-40
2022/08/22 03:28:36;;;;;;;;;;;24.00;60.40;;;;;;6299759;27;20341;-40
2022/08/22 03:31:48;;;;;;;;;;;24.20;60.50;;;;;;6315309;27;19967;-42
2022/08/22 03:34:53;;;;;;;;;;;24.00;60.40;;;;;;6293958;27;20309;-39
2022/08/22 03:38:00;;;;;;;;;;;24.00;60.60;;;;;;6321841;27;19966;-40
2022/08/22 03:41:08;;;;;;;;;;;23.80;60.30;;;;;;6331728;27;19929;-42
2022/08/22 03:44:23;;;;;;;;;;;23.90;60.30;;;;;;6327722;27;20326;-40
2022/08/22 03:47:35;;;;;;;;;;;24.30;60.60;;;;;;6324563;27;20212;-42
2022/08/22 03:50:48;;;;;;;;;;;24.10;60.50;;;;;;6323499;27;19927;-39
2022/08/22 03:53:57;;;;;;;;;;;24.10;60.50;;;;;;6319878;27;19974;-41
2022/08/22 03:57:13;;;;;;;;;;;24.10;60.50;;;;;;6299158;27;19934;-39
2022/08/22 04:00:20;;;;;;;;;;;24.00;60.50;;;;;;6304141;27;20342;-41
2022/08/22 04:03:35;;;;;;;;;;;24.30;60.60;;;;;;6317842;27;19976;-41
2022/08/22 04:06:49;;;;;;;;;;;23.90;60.40;;;;;;6324212;27;19991;-41
2022/08/22 04:10:08;;;;;;;;;;;24.20;61.00;;;;;;6318797;27;19927;-41
2022/08/22 04:13:20;;;;;;;;;;;24.20;60.60;;;;;;6323454;27;20245;-39
2022/08/22 04:16:35;;;;;;;;;;;24.40;60.70;;;;;;6323064;27;20167;-39
2022/08/22 04:19:52;;;;;;;;;;;23.80;60.40;;;;;;6315491;27;20053;-42
2022/08/22 04:23:04;;;;;;;;;;;23.90;60.50;;;;;;6302181;27;20352;-41
2022/08/22 04:26:09;;;;;;;;;;;24.00;60.50;;;;;;6321316;27;21571;-40
2022/08/22 04:29:15;;;;;;;;;;;24.10;60.60;;;;;;6323214;27;20226;-39
2022/08/22 04:32:24;;;;;;;;;;;23.80;60.50;;;;;;6298654;27;20250;-43
2022/08/22 04:35:28;;;;;;;;;;;23.80;60.40;;;;;;6321547;27;20094;-41
2022/08/22 04:38:37;;;;;;;;;;;24.20;60.70;;;;;;6319773;27;20805;-41
2022/08/22 04:41:47;;;;;;;;;;;24.00;60.60;;;;;;6317926;27;19933;-40
2022/08/22 04:44:52;;;;;;;;;;;23.90;60.60;;;;;;6320599;27;20003;-40
2022/08/22 04:47:58;;;;;;;;;;;23.80;60.50;;;;;;6314344;27;20048;-40
2022/08/22 04:51:07;;;;;;;;;;;24.00;60.60;;;;;;6316524;27;20225;-42
2022/08/22 04:54:29;;;;;;;;;;;24.30;60.80;;;;;;6295611;27;19926;-39
2022/08/22 04:57:35;;;;;;;;;;;24.00;60.70;;;;;;6313746;27;20405;-42
2022/08/22 05:00:39;;;;;;;;;;;24.10;60.70;;;;;;6297192;27;20052;-40
2022/08/22 05:03:45;;;;;;;;;;;24.10;60.70;;;;;;6316417;27;20495;-43
2022/08/22 05:06:49;;;;;;;;;;;23.90;60.60;;;;;;6313914;27;20336;-39
2022/08/22 05:09:53;;;;;;;;;;;23.80;60.60;;;;;;6315699;27;20629;-39
2022/08/22 05:12:59;;;;;;;;;;;24.20;60.80;;;;;;6315258;27;20203;-39
2022/08/22 05:16:03;;;;;;;;;;;23.90;60.70;;;;;;6304894;27;20354;-39
2022/08/22 05:19:07;;;;;;;;;;;24.10;60.80;;;;;;6330154;27;19935;-40
2022/08/22 05:22:18;;;;;;;;;;;24.00;60.70;;;;;;6330671;27;19927;-39
2022/08/22 05:25:21;;;;;;;;;;;24.00;60.70;;;;;;6326932;27;19933;-39
2022/08/22 05:28:27;;;;;;;;;;;23.70;60.70;;;;;;6329137;27;20026;-40
2022/08/22 05:31:30;;;;;;;;;;;23.90;60.70;;;;;;6317991;27;19985;-38
2022/08/22 05:34:33;;;;;;;;;;;23.90;60.70;;;;;;6314982;27;19930;-38
2022/08/22 05:37:37;;;;;;;;;;;24.00;60.80;;;;;;6295637;27;20381;-42
2022/08/22 05:40:39;;;;;;;;;;;24.10;60.80;;;;;;6289461;27;19931;-43
2022/08/22 05:43:42;;;;;;;;;;;24.20;60.90;;;;;;6301359;27;19923;-40
2022/08/22 05:46:45;;;;;;;;;;;24.10;60.90;;;;;;6303897;27;20566;-40
2022/08/22 05:49:52;;;;;;;;;;;24.00;60.80;;;;;;6305649;27;19966;-39
2022/08/22 05:53:00;;;;;;;;;;;23.70;60.70;;;;;;6317491;27;20045;-39
2022/08/22 05:56:04;;;;;;;;;;;24.10;60.90;;;;;;6316631;27;21968;-40
2022/08/22 05:59:12;;;;;;;;;;;23.90;60.80;;;;;;6303564;27;20365;-41
2022/08/22 06:02:19;;;;;;;;;;;23.80;60.80;;;;;;6296188;27;20071;-40
2022/08/22 06:05:25;;;;;;;;;;;23.90;60.80;;;;;;6275872;27;20023;-39
2022/08/22 06:08:33;;;;;;;;;;;24.00;60.90;;;;;;6270737;27;20084;-39
2022/08/22 06:11:38;;;;;;;;;;;24.10;60.90;;;;;;6287092;27;20593;-38
2022/08/22 06:14:44;;;;;;;;;;;23.80;60.80;;;;;;6283730;27;19927;-39
2022/08/22 06:17:46;;;;;;;;;;;24.00;60.90;;;;;;6280177;27;20300;-40
2022/08/22 06:20:49;;;;;;;;;;;23.80;60.80;;;;;;6278162;27;20332;-39
2022/08/22 06:23:55;;;;;;;;;;;23.70;60.80;;;;;;6283499;27;20015;-39
2022/08/22 06:26:58;;;;;;;;;;;23.90;60.90;;;;;;6287177;27;19987;-39
2022/08/22 06:30:00;;;;;;;;;;;23.90;60.90;;;;;;6282670;27;20919;-39
2022/08/22 06:33:05;;;;;;;;;;;24.10;61.00;;;;;;6257801;27;19934;-39
2022/08/22 06:39:30;;;;;;;;;;;24.10;61.00;;;;;;6251193;27;20000;-39
2022/08/22 06:42:32;;;;;;;;;;;24.00;61.00;;;;;;6250960;27;21046;-40
2022/08/22 06:45:35;;;;;;;;;;;23.90;60.90;;;;;;6245468;27;21881;-41
2022/08/22 06:48:37;;;;;;;;;;;24.00;61.00;;;;;;6227098;27;19983;-42
2022/08/22 06:51:38;;;;;;;;;;;23.80;60.90;;;;;;6196496;27;20643;-40
2022/08/22 06:54:45;;;;;;;;;;;24.10;61.10;;;;;;6219517;27;20007;-39
2022/08/22 06:57:50;;;;;;;;;;;23.80;60.90;;;;;;6176523;27;20057;-39
2022/08/22 07:00:54;;;;;;;;;;;24.00;61.60;;;;;;6195341;27;19936;-40
2022/08/22 07:04:13;;;;;;;;;;;24.00;61.00;;;;;;6199325;27;19960;-40
2022/08/22 07:07:16;;;;;;;;;;;23.80;60.90;;;;;;6195083;27;19934;-40
2022/08/22 07:10:20;;;;;;;;;;;24.10;61.00;;;;;;6171461;27;20022;-38
2022/08/22 07:13:24;;;;;;;;;;;24.20;61.30;;;;;;6207728;27;19977;-39
2022/08/22 07:16:28;;;;;;;;;;;24.10;61.10;;;;;;6192327;27;21643;-39
2022/08/22 07:19:31;;;;;;;;;;;24.10;61.00;;;;;;6201625;27;20070;-39
2022/08/22 07:22:34;;;;;;;;;;;23.70;60.80;;;;;;6210435;27;19934;-39
2022/08/22 07:25:43;;;;;;;;;;;24.20;61.00;;;;;;6190872;27;20008;-39
2022/08/22 07:28:48;;;;;;;;;;;24.30;61.10;;;;;;6178318;27;19927;-41
2022/08/22 07:31:56;;;;;;;;;;;24.10;60.90;;;;;;6145441;27;19934;-39
2022/08/22 07:35:06;;;;;;;;;;;24.30;61.00;;;;;;6178509;27;19927;-38
2022/08/22 07:38:13;;;;;;;;;;;24.20;61.00;;;;;;6188628;27;22141;-41
2022/08/22 07:41:15;;;;;;;;;;;24.20;60.90;;;;;;6190342;27;20071;-39
2022/08/22 07:44:19;;;;;;;;;;;24.20;61.00;;;;;;6173522;27;19933;-39
2022/08/22 07:47:22;;;;;;;;;;;24.30;61.00;;;;;;6137136;27;20076;-39
2022/08/22 07:50:29;;;;;;;;;;;23.90;60.70;;;;;;6155536;27;19928;-49
2022/08/22 07:53:36;;;;;;;;;;;24.10;60.80;;;;;;6176472;27;19934;-39
2022/08/22 07:56:41;;;;;;;;;;;24.20;61.00;;;;;;6199016;27;20840;-39
2022/08/22 07:59:47;;;;;;;;;;;24.00;60.70;;;;;;6187989;27;19927;-38
2022/08/22 08:02:50;;;;;;;;;;;24.30;60.80;;;;;;6187657;27;19934;-39
2022/08/22 08:05:52;;;;;;;;;;;24.50;60.90;;;;;;6212200;27;21102;-41
2022/08/22 08:08:54;;;;;;;;;;;24.30;60.80;;;;;;6199847;27;21593;-40
2022/08/22 08:11:58;;;;;;;;;;;24.50;60.90;;;;;;6202694;27;20034;-40
2022/08/22 08:15:01;;;;;;;;;;;24.60;61.00;;;;;;6202991;27;19926;-40
2022/08/22 08:18:04;;;;;;;;;;;24.50;60.90;;;;;;6214874;27;20545;-40
2022/08/22 08:21:07;;;;;;;;;;;24.10;60.70;;;;;;6214511;27;20706;-40
2022/08/22 08:24:12;;;;;;;;;;;24.50;61.00;;;;;;6205220;27;19926;-41
2022/08/22 08:30:35;;;;;;;;;;;24.20;60.80;;;;;;6186808;27;19934;-40
2022/08/22 08:33:39;;;;;;;;;;;24.60;61.00;;;;;;6169799;27;20909;-40
2022/08/22 08:36:47;;;;;;;;;;;24.30;60.90;;;;;;6197167;27;20057;-39
2022/08/22 08:39:49;;;;;;;;;;;23.70;60.50;;;;;;6202468;27;20020;-41
2022/08/22 08:46:25;;;;;;;;;;;24.60;61.10;;;;;;6192756;27;21653;-40
2022/08/22 08:49:35;;;;;;;;;;;24.90;61.20;;;;;;6185805;27;20003;-39
2022/08/22 08:52:58;;;;;;;;;;;24.70;61.10;;;;;;6175645;27;19927;-38
2022/08/22 08:56:03;;;;;;;;;;;24.40;60.90;;;;;;6145049;27;20053;-40
2022/08/22 08:59:09;;;;;;;;;;;24.50;61.00;;;;;;6144971;27;20581;-40
2022/08/22 09:02:22;;;;;;;;;;;24.20;60.70;;;;;;6129051;27;20976;-39
2022/08/22 09:05:40;;;;;;;;;;;24.50;60.90;;;;;;6159836;27;20111;-41
2022/08/22 09:08:49;;;;;;;;;;;24.80;61.00;;;;;;6161987;27;20007;-40
2022/08/22 09:12:09;;;;;;;;;;;24.40;60.80;;;;;;6188368;27;19934;-40
2022/08/22 09:15:20;;;;;;;;;;;24.60;60.90;;;;;;6194112;27;20494;-40
2022/08/22 09:18:28;;;;;;;;;;;24.50;60.80;;;;;;6211252;27;20921;-40
2022/08/22 09:21:44;;;;;;;;;;;24.40;60.80;;;;;;6172159;27;19971;-40
2022/08/22 09:24:51;;;;;;;;;;;24.50;60.80;;;;;;6183673;27;21362;-40
2022/08/22 09:27:58;;;;;;;;;;;24.50;60.90;;;;;;6171322;27;20001;-38
2022/08/22 09:31:07;;;;;;;;;;;24.60;60.90;;;;;;6165999;27;19927;-38
2022/08/22 09:34:32;;;;;;;;;;;24.80;61.00;;;;;;6155851;27;20019;-39
2022/08/22 09:37:40;;;;;;;;;;;24.70;60.90;;;;;;6215349;27;21465;-39
2022/08/22 09:40:44;;;;;;;;;;;24.60;60.80;;;;;;6199499;27;21300;-38
2022/08/22 09:43:56;;;;;;;;;;;24.70;60.90;;;;;;6200525;27;19927;-39
2022/08/22 09:47:06;;;;;;;;;;;24.80;61.00;;;;;;6205673;27;19927;-39
2022/08/22 09:50:12;;;;;;;;;;;24.90;61.50;;;;;;6195840;27;19933;-39
2022/08/22 09:53:24;;;;;;;;;;;24.70;60.90;;;;;;6182627;27;19927;-39
2022/08/22 09:56:35;;;;;;;;;;;24.70;61.00;;;;;;6189435;27;19927;-40
2022/08/22 09:59:46;;;;;;;;;;;24.80;61.00;;;;;;6187561;27;20016;-40
2022/08/22 10:02:52;;;;;;;;;;;24.50;60.90;;;;;;6196218;27;19934;-39
2022/08/22 10:05:57;;;;;;;;;;;24.70;61.00;;;;;;6195149;27;20245;-40
2022/08/22 10:09:02;;;;;;;;;;;24.70;61.00;;;;;;6170350;27;21122;-39
2022/08/22 10:12:05;;;;;;;;;;;24.80;61.20;;;;;;6188448;27;20053;-38
2022/08/22 10:15:18;;;;;;;;;;;24.80;61.30;;;;;;6200358;27;19927;-38
2022/08/22 10:18:24;;;;;;;;;;;24.70;61.20;;;;;;6187407;27;19938;-39
2022/08/22 10:21:35;;;;;;;;;;;24.80;61.20;;;;;;6204593;27;19931;-39
2022/08/22 10:24:42;;;;;;;;;;;24.70;61.20;;;;;;6193994;27;20868;-39
2022/08/22 10:27:52;;;;;;;;;;;24.80;61.30;;;;;;6193320;27;19927;-39
2022/08/22 10:31:12;;;;;;;;;;;24.70;61.30;;;;;;6225176;27;19927;-39
2022/08/22 10:34:17;;;;;;;;;;;24.80;61.30;;;;;;6209018;27;20042;-40
2022/08/22 10:37:23;;;;;;;;;;;24.50;61.10;;;;;;6208168;27;20045;-40
2022/08/22 10:40:27;;;;;;;;;;;24.80;61.30;;;;;;6224745;27;19930;-39
2022/08/22 10:43:33;;;;;;;;;;;24.90;61.40;;;;;;6218982;27;19934;-38
2022/08/22 10:46:37;;;;;;;;;;;24.80;61.30;;;;;;6238834;27;21508;-39
2022/08/22 10:49:45;;;;;;;;;;;24.80;61.40;;;;;;6204842;27;19928;-39
2022/08/22 10:52:48;;;;;;;;;;;24.60;61.40;;;;;;6209928;27;19934;-40
2022/08/22 10:55:53;;;;;;;;;;;24.50;61.30;;;;;;6225590;27;19966;-40
2022/08/22 10:59:02;;;;;;;;;;;24.70;61.50;;;;;;6238607;27;20018;-40
2022/08/22 11:02:17;;;;;;;;;;;24.60;61.40;;;;;;6236194;27;20012;-39
2022/08/22 11:05:24;;;;;;;;;;;25.00;61.70;;;;;;6235698;27;20045;-39
2022/08/22 11:08:32;;;;;;;;;;;24.50;61.40;;;;;;6227990;27;20026;-39
2022/08/22 11:11:38;;;;;;;;;;;24.70;61.60;;;;;;6252550;27;21110;-40
2022/08/22 11:14:50;;;;;;;;;;;24.60;61.50;;;;;;6246265;27;19927;-42
2022/08/22 11:18:08;;;;;;;;;;;24.80;61.70;;;;;;6215684;27;20007;-39
2022/08/22 11:21:19;;;;;;;;;;;24.60;61.50;;;;;;6228188;27;20315;-39
2022/08/22 11:24:37;;;;;;;;;;;24.80;61.60;;;;;;6228188;27;20089;-39
2022/08/22 11:28:04;;;;;;;;;;;24.60;61.40;;;;;;6207626;27;19949;-42
2022/08/22 11:31:09;;;;;;;;;;;24.90;61.60;;;;;;6229009;27;20041;-39
2022/08/22 11:34:15;;;;;;;;;;;25.00;61.60;;;;;;6227724;27;19982;-39
2022/08/22 11:37:29;;;;;;;;;;;24.80;61.50;;;;;;6218473;27;19928;-39
2022/08/22 11:40:49;;;;;;;;;;;24.90;61.50;;;;;;6186290;27;19973;-40
2022/08/22 11:43:55;;;;;;;;;;;24.80;61.40;;;;;;6218994;27;21405;-40
2022/08/22 11:46:58;;;;;;;;;;;24.80;61.40;;;;;;6214864;27;19931;-39
2022/08/22 11:50:01;;;;;;;;;;;24.80;61.30;;;;;;6191306;27;19934;-40
2022/08/22 11:53:12;;;;;;;;;;;25.10;61.50;;;;;;6193320;27;19966;-40
2022/08/22 11:56:20;;;;;;;;;;;24.90;61.50;;;;;;6172596;27;19931;-40
2022/08/22 11:59:28;;;;;;;;;;;24.90;61.40;;;;;;6180356;27;22119;-40
2022/08/22 12:02:49;;;;;;;;;;;24.90;61.40;;;;;;6157073;27;21780;-39
2022/08/22 12:05:53;;;;;;;;;;;25.10;61.50;;;;;;6127227;27;19933;-39
2022/08/22 12:09:07;;;;;;;;;;;24.90;61.40;;;;;;6186347;27;19927;-40
2022/08/22 12:12:18;;;;;;;;;;;24.90;61.30;;;;;;6192901;27;20069;-40
2022/08/22 12:15:23;;;;;;;;;;;25.00;61.40;;;;;;6142790;27;20547;-41
2022/08/22 12:18:36;;;;;;;;;;;25.10;62.10;;;;;;6174628;27;19931;-40
2022/08/22 12:21:56;;;;;;;;;;;25.00;61.30;;;;;;6153115;27;21725;-39
2022/08/22 12:25:06;;;;;;;;;;;24.90;61.20;;;;;;6228684;27;20046;-40
2022/08/22 12:28:13;;;;;;;;;;;25.10;61.30;;;;;;6221328;27;19927;-39
2022/08/22 12:31:25;;;;;;;;;;;25.10;61.50;;;;;;6180400;27;24103;-40
2022/08/22 12:34:31;;;;;;;;;;;25.10;61.50;;;;;;6195623;27;21827;-41
2022/08/22 12:37:39;;;;;;;;;;;24.40;61.00;;;;;;6192858;27;19962;-41
2022/08/22 12:41:04;;;;;;;;;;;25.10;61.40;;;;;;6195680;27;20050;-41
2022/08/22 12:44:17;;;;;;;;;;;25.10;61.40;;;;;;6206583;27;19927;-42
2022/08/22 12:47:27;;;;;;;;;;;25.00;61.20;;;;;;6202999;27;21687;-41
2022/08/22 12:50:33;;;;;;;;;;;25.10;61.30;;;;;;6220296;27;20046;-42
2022/08/22 12:53:48;;;;;;;;;;;25.10;61.30;;;;;;6221529;27;19933;-41
2022/08/22 12:56:54;;;;;;;;;;;25.20;61.50;;;;;;6189119;27;20049;-41
2022/08/22 12:59:59;;;;;;;;;;;25.10;61.30;;;;;;6213191;27;19999;-41
2022/08/22 13:03:06;;;;;;;;;;;25.10;61.30;;;;;;6169489;27;19927;-43
2022/08/22 13:06:25;;;;;;;;;;;25.10;61.40;;;;;;6163157;27;19934;-41
2022/08/22 13:09:29;;;;;;;;;;;25.10;61.30;;;;;;6188632;27;19927;-41
2022/08/22 13:12:35;;;;;;;;;;;25.10;61.40;;;;;;6167847;27;20953;-42
2022/08/22 13:15:44;;;;;;;;;;;25.00;61.20;;;;;;6210100;27;19931;-41
2022/08/22 13:18:47;;;;;;;;;;;25.10;61.30;;;;;;6174119;27;20011;-41
2022/08/22 13:21:58;;;;;;;;;;;25.00;61.20;;;;;;6174992;27;19930;-41
2022/08/22 13:25:01;;;;;;;;;;;25.20;61.20;;;;;;6204585;27;20057;-41
2022/08/22 13:28:10;;;;;;;;;;;25.10;61.10;;;;;;6170951;27;19927;-41
2022/08/22 13:31:19;;;;;;;;;;;25.20;61.20;;;;;;6219448;27;19927;-42
2022/08/22 13:34:27;;;;;;;;;;;24.90;60.90;;;;;;6205392;27;19934;-42
2022/08/22 13:37:30;;;;;;;;;;;25.10;61.10;;;;;;6212602;27;19931;-43
2022/08/22 13:40:32;;;;;;;;;;;25.20;61.40;;;;;;6177577;27;20015;-41
2022/08/22 13:43:36;;;;;;;;;;;25.20;61.10;;;;;;6212039;27;19927;-41
2022/08/22 13:46:39;;;;;;;;;;;25.40;61.20;;;;;;6187497;27;19927;-41
2022/08/22 13:50:06;;;;;;;;;;;25.20;61.00;;;;;;6197586;27;20026;-41
2022/08/22 13:53:11;;;;;;;;;;;25.40;61.10;;;;;;6233726;27;20045;-40
2022/08/22 13:56:18;;;;;;;;;;;25.30;61.70;;;;;;6215906;27;20476;-41
2022/08/22 13:59:25;;;;;;;;;;;25.30;61.00;;;;;;6190245;27;19960;-40
2022/08/22 14:02:52;;;;;;;;;;;25.40;61.00;;;;;;6203874;27;19926;-39
2022/08/22 14:05:55;;;;;;;;;;;25.30;61.00;;;;;;6206347;27;19927;-39
2022/08/22 14:09:18;;;;;;;;;;;25.30;61.00;;;;;;6199017;27;19927;-41
2022/08/22 14:12:35;;;;;;;;;;;25.30;61.00;;;;;;6210794;27;19931;-43
2022/08/22 14:15:57;;;;;;;;;;;25.40;61.00;;;;;;6188537;27;20070;-43
2022/08/22 14:19:01;;;;;;;;;;;25.40;61.00;;;;;;6197497;27;19933;-40
2022/08/22 14:22:10;;;;;;;;;;;25.40;61.00;;;;;;6189287;27;19934;-40
2022/08/22 14:25:17;;;;;;;;;;;25.30;60.90;;;;;;6202754;27;20470;-41
2022/08/22 14:28:21;;;;;;;;;;;25.30;60.90;;;;;;6180109;27;20322;-40
2022/08/22 14:31:29;;;;;;;;;;;25.30;60.90;;;;;;6213482;27;19927;-40
2022/08/22 14:34:32;;;;;;;;;;;25.40;61.10;;;;;;6217762;27;19977;-40
2022/08/22 14:37:37;;;;;;;;;;;25.30;60.90;;;;;;6225378;27;19927;-41
2022/08/22 14:40:41;;;;;;;;;;;25.40;60.90;;;;;;6218241;27;19927;-40
2022/08/22 14:43:48;;;;;;;;;;;25.40;61.00;;;;;;6214024;27;20887;-41
2022/08/22 14:46:52;;;;;;;;;;;25.40;60.90;;;;;;6202426;27;19927;-40
2022/08/22 14:49:55;;;;;;;;;;;25.30;60.90;;;;;;6191601;27;21103;-41
2022/08/22 14:53:04;;;;;;;;;;;25.40;61.00;;;;;;6188635;27;19927;-40
2022/08/22 14:56:08;;;;;;;;;;;25.40;61.00;;;;;;6173875;27;22096;-43
2022/08/22 14:59:13;;;;;;;;;;;25.50;61.10;;;;;;6217978;27;21178;-41
2022/08/22 15:02:22;;;;;;;;;;;25.50;61.00;;;;;;6204197;27;20057;-41
2022/08/22 15:05:25;;;;;;;;;;;25.50;61.20;;;;;;6201094;27;20457;-42
2022/08/22 15:08:31;;;;;;;;;;;25.50;61.00;;;;;;6222318;27;20129;-41
2022/08/22 15:11:33;;;;;;;;;;;25.70;61.20;;;;;;6183093;27;20143;-40
2022/08/22 15:14:44;;;;;;;;;;;25.30;60.90;;;;;;6185499;27;20584;-41
2022/08/22 15:17:53;;;;;;;;;;;25.50;61.00;;;;;;6182099;27;19931;-41
2022/08/22 15:20:59;;;;;;;;;;;25.50;61.20;;;;;;6232810;27;19934;-40
2022/08/22 15:24:05;;;;;;;;;;;25.30;60.90;;;;;;6216136;27;19978;-40
2022/08/22 15:27:07;;;;;;;;;;;25.50;61.00;;;;;;6188665;27;19969;-40
2022/08/22 15:30:10;;;;;;;;;;;25.40;61.00;;;;;;6221167;27;19934;-41
2022/08/22 15:33:23;;;;;;;;;;;25.50;61.20;;;;;;6203034;27;19927;-40
2022/08/22 15:36:25;;;;;;;;;;;25.40;61.00;;;;;;6233757;27;20046;-40
2022/08/22 15:39:30;;;;;;;;;;;25.30;60.90;;;;;;6236219;27;21295;-39
2022/08/22 15:42:33;;;;;;;;;;;25.50;61.10;;;;;;6212999;27;19934;-39
2022/08/22 15:45:36;;;;;;;;;;;25.30;61.00;;;;;;6180074;27;19934;-40
2022/08/22 15:48:40;;;;;;;;;;;25.20;60.90;;;;;;6216401;27;21827;-40
2022/08/22 15:51:45;;;;;;;;;;;25.50;61.10;;;;;;6232342;27;19995;-40
2022/08/22 15:55:04;;;;;;;;;;;25.40;61.10;;;;;;6232598;27;20019;-39
2022/08/22 15:58:07;;;;;;;;;;;25.10;60.80;;;;;;6221116;27;20498;-40
2022/08/22 16:01:11;;;;;;;;;;;25.40;61.00;;;;;;6232831;27;21255;-40
2022/08/22 16:04:30;;;;;;;;;;;25.50;61.10;;;;;;6255621;27;19927;-40
2022/08/22 16:07:34;;;;;;;;;;;25.40;61.70;;;;;;6223559;27;20123;-40
2022/08/22 16:10:38;;;;;;;;;;;25.40;61.20;;;;;;6233046;27;20069;-41
2022/08/22 16:13:41;;;;;;;;;;;25.30;61.10;;;;;;6258582;27;19934;-39
2022/08/22 16:16:53;;;;;;;;;;;25.40;61.40;;;;;;6249157;27;21115;-41
2022/08/22 16:20:09;;;;;;;;;;;25.40;61.20;;;;;;6265683;27;20387;-42
2022/08/22 16:23:21;;;;;;;;;;;25.30;61.10;;;;;;6268408;27;19934;-40
2022/08/22 16:26:24;;;;;;;;;;;25.30;61.30;;;;;;6291261;27;20487;-39
2022/08/22 16:29:29;;;;;;;;;;;25.30;61.20;;;;;;6267543;27;19937;-38
2022/08/22 16:32:50;;;;;;;;;;;25.20;61.20;;;;;;6265340;27;20860;-41
2022/08/22 16:36:07;;;;;;;;;;;25.20;61.20;;;;;;6282233;27;20029;-39
2022/08/22 16:39:10;;;;;;;;;;;25.30;61.30;;;;;;6268530;27;19931;-40
2022/08/22 16:42:23;;;;;;;;;;;25.40;61.50;;;;;;6285867;27;19927;-39
2022/08/22 16:45:31;;;;;;;;;;;25.30;61.40;;;;;;6265627;27;20819;-41
2022/08/22 16:48:34;;;;;;;;;;;25.40;61.50;;;;;;6290853;27;19923;-39
2022/08/22 16:51:56;;;;;;;;;;;25.20;61.40;;;;;;6295113;27;21218;-41
2022/08/22 16:54:59;;;;;;;;;;;25.10;61.40;;;;;;6274008;27;20080;-41
2022/08/22 16:58:05;;;;;;;;;;;25.10;61.40;;;;;;6293312;27;21113;-42
2022/08/22 17:01:11;;;;;;;;;;;25.10;61.50;;;;;;6281143;27;19933;-42
2022/08/22 17:04:19;;;;;;;;;;;25.20;61.50;;;;;;6297502;27;20006;-41
2022/08/22 17:07:26;;;;;;;;;;;25.20;61.60;;;;;;6283778;27;20842;-41
2022/08/22 17:10:36;;;;;;;;;;;24.80;61.30;;;;;;6275636;27;20183;-40
2022/08/22 17:13:55;;;;;;;;;;;25.10;61.60;;;;;;6296650;27;20053;-42
2022/08/22 17:17:03;;;;;;;;;;;25.00;61.50;;;;;;6294502;27;19966;-42
2022/08/22 17:20:10;;;;;;;;;;;25.10;61.70;;;;;;6297153;27;19948;-40
2022/08/22 17:23:16;;;;;;;;;;;25.10;61.70;;;;;;6309395;27;19927;-40
2022/08/22 17:26:21;;;;;;;;;;;25.10;61.80;;;;;;6304470;27;19969;-40
2022/08/22 17:29:30;;;;;;;;;;;25.00;61.80;;;;;;6308873;27;20015;-42
2022/08/22 17:32:33;;;;;;;;;;;25.10;62.00;;;;;;6305636;27;21067;-40
2022/08/22 17:35:42;;;;;;;;;;;25.00;61.80;;;;;;6302097;27;20034;-40
2022/08/22 17:38:48;;;;;;;;;;;25.00;61.90;;;;;;6306214;27;19963;-43
2022/08/22 17:41:53;;;;;;;;;;;25.00;62.00;;;;;;6309526;27;19970;-43
2022/08/22 17:45:02;;;;;;;;;;;25.10;62.20;;;;;;6288667;27;19935;-42
2022/08/22 17:48:05;;;;;;;;;;;24.90;62.10;;;;;;6301737;27;19928;-41
2022/08/22 17:51:12;;;;;;;;;;;24.90;62.10;;;;;;6290525;27;21105;-41
2022/08/22 17:54:15;;;;;;;;;;;24.70;62.10;;;;;;6299156;27;19922;-41
2022/08/22 17:57:24;;;;;;;;;;;24.90;62.20;;;;;;6295765;27;20036;-40
2022/08/22 18:00:29;;;;;;;;;;;24.70;62.10;;;;;;6295023;27;19974;-43
2022/08/22 18:03:32;;;;;;;;;;;24.70;62.20;;;;;;6286958;27;20077;-41
2022/08/22 18:06:36;;;;;;;;;;;24.60;62.10;;;;;;6274166;27;20013;-42
2022/08/22 18:09:40;;;;;;;;;;;25.10;62.50;;;;;;6258108;27;20353;-42
2022/08/22 18:12:44;;;;;;;;;;;25.20;62.60;;;;;;6297084;27;20090;-40
2022/08/22 18:15:50;;;;;;;;;;;25.10;62.50;;;;;;6293458;27;19931;-42
2022/08/22 18:18:55;;;;;;;;;;;24.70;62.30;;;;;;6291207;27;20666;-41
2022/08/22 18:21:58;;;;;;;;;;;24.90;62.50;;;;;;6278671;27;20030;-44